createdAt,value
2022-11-03T00:01:03.524Z,11.14
2022-11-03T00:06:07.687Z,11.16
2022-11-03T00:10:57.133Z,11.16
2022-11-03T00:15:50.779Z,11.16
2022-11-03T00:20:40.250Z,11.19
2022-11-03T00:25:32.301Z,11.21
2022-11-03T00:30:21.710Z,11.24
2022-11-03T00:35:11.275Z,11.24
2022-11-03T00:40:00.977Z,11.24
2022-11-03T00:44:53.139Z,11.23
2022-11-03T00:49:42.608Z,11.25
2022-11-03T00:54:32.030Z,11.25
2022-11-03T00:59:21.635Z,11.27
2022-11-03T01:04:26.481Z,11.30
2022-11-03T01:09:17.356Z,11.30
2022-11-03T01:14:07.378Z,11.29
2022-11-03T01:18:57.412Z,11.27
2022-11-03T01:23:49.454Z,11.28
2022-11-03T01:28:39.352Z,11.27
2022-11-03T01:33:29.110Z,11.25
2022-11-03T01:38:18.627Z,11.22
2022-11-03T01:43:24.150Z,11.20
2022-11-03T01:48:14.808Z,11.19
2022-11-03T01:53:04.833Z,11.18
2022-11-03T01:57:57.110Z,11.13
2022-11-03T02:02:49.529Z,11.13
2022-11-03T02:07:44.074Z,11.11
2022-11-03T02:12:33.559Z,11.08
2022-11-03T02:17:24.285Z,11.04
2022-11-03T02:22:28.940Z,11.05
2022-11-03T02:27:21.074Z,10.99
2022-11-03T02:32:16.748Z,10.99
2022-11-03T02:37:09.324Z,10.98
2022-11-03T02:41:59.940Z,10.96
2022-11-03T02:46:56.361Z,10.92
2022-11-03T02:51:45.804Z,10.93
2022-11-03T02:56:38.289Z,10.91
2022-11-03T03:01:30.726Z,10.92
2022-11-03T03:06:25.528Z,10.93
2022-11-03T03:11:16.200Z,10.91
2022-11-03T03:16:09.644Z,10.93
2022-11-03T03:21:03.476Z,10.93
2022-11-03T03:25:58.418Z,10.96
2022-11-03T03:30:49.639Z,10.97
2022-11-03T03:35:41.522Z,10.99
2022-11-03T03:40:34.166Z,11.02
2022-11-03T03:45:27.706Z,11.04
2022-11-03T03:50:17.338Z,11.08
2022-11-03T03:55:10.578Z,11.06
2022-11-03T04:00:00.485Z,11.08
2022-11-03T04:04:52.675Z,11.09
2022-11-03T04:09:42.372Z,11.08
2022-11-03T04:14:44.288Z,11.05
2022-11-03T04:19:46.125Z,11.08
2022-11-03T04:24:38.224Z,11.04
2022-11-03T04:29:27.863Z,11.04
2022-11-03T04:34:17.337Z,11.06
2022-11-03T04:39:16.007Z,11.12
2022-11-03T04:44:14.258Z,11.08
2022-11-03T04:49:04.633Z,11.21
2022-11-03T04:53:56.377Z,11.24
2022-11-03T04:58:47.897Z,11.29
2022-11-03T05:03:42.266Z,11.32
2022-11-03T05:08:31.713Z,11.35
2022-11-03T05:13:23.944Z,11.39
2022-11-03T05:18:18.383Z,11.41
2022-11-03T05:23:13.730Z,11.42
2022-11-03T05:28:03.363Z,11.40
2022-11-03T05:32:53.008Z,11.40
2022-11-03T05:37:44.733Z,11.41
2022-11-03T05:42:42.544Z,11.41
2022-11-03T05:47:35.367Z,11.44
2022-11-03T05:52:26.933Z,11.44
2022-11-03T05:57:16.992Z,11.46
2022-11-03T06:02:19.188Z,11.44
2022-11-03T06:07:13.560Z,11.44
2022-11-03T06:12:07.113Z,11.43
2022-11-03T06:16:57.811Z,11.44
2022-11-03T06:21:50.056Z,11.44
2022-11-03T06:26:39.842Z,11.44
2022-11-03T06:31:30.199Z,11.47
2022-11-03T06:36:22.209Z,11.50
2022-11-03T06:41:21.090Z,11.54
2022-11-03T06:46:15.942Z,11.57
2022-11-03T06:51:06.527Z,11.55
2022-11-03T06:55:56.523Z,11.54
2022-11-03T07:00:51.336Z,11.55
2022-11-03T07:05:42.001Z,11.59
2022-11-03T07:10:32.453Z,11.61
2022-11-03T07:15:30.406Z,11.60
2022-11-03T07:20:23.014Z,11.62
2022-11-03T07:25:16.643Z,11.66
2022-11-03T07:30:13.897Z,11.68
2022-11-03T07:35:07.002Z,11.71
2022-11-03T07:40:00.570Z,11.78
2022-11-03T07:44:50.822Z,11.84
2022-11-03T07:49:40.542Z,11.89
2022-11-03T07:54:31.942Z,11.95
2022-11-03T07:59:25.536Z,11.99
2022-11-03T08:04:16.497Z,12.05
2022-11-03T08:09:07.162Z,12.12
2022-11-03T08:13:56.845Z,12.19
2022-11-03T08:18:49.361Z,12.22
2022-11-03T08:23:43.166Z,12.26
2022-11-03T08:28:36.020Z,12.27
2022-11-03T08:33:25.531Z,12.29
2022-11-03T08:38:17.630Z,12.34
2022-11-03T08:43:07.063Z,12.39
2022-11-03T08:47:56.545Z,12.45
2022-11-03T08:52:46.351Z,12.51
2022-11-03T08:57:38.330Z,12.51
2022-11-03T09:02:27.765Z,12.57
2022-11-03T09:07:17.965Z,12.63
2022-11-03T09:12:08.069Z,12.68
2022-11-03T09:17:00.312Z,12.74
2022-11-03T09:21:50.181Z,12.80
2022-11-03T09:26:40.192Z,12.85
2022-11-03T09:31:29.600Z,12.86
2022-11-03T09:36:21.712Z,12.88
2022-11-03T09:41:26.685Z,12.88
2022-11-03T09:46:27.310Z,12.91
2022-11-03T09:51:21.135Z,12.91
2022-11-03T09:56:14.584Z,12.93
2022-11-03T10:01:04.300Z,12.96
2022-11-03T10:05:53.749Z,13.00
2022-11-03T10:10:43.332Z,13.04
2022-11-03T10:15:35.455Z,13.06
2022-11-03T10:20:27.400Z,13.08
2022-11-03T10:25:33.331Z,13.11
2022-11-03T10:30:22.847Z,13.11
2022-11-03T10:35:34.588Z,13.10
2022-11-03T10:40:53.013Z,13.13
2022-11-03T10:45:42.702Z,13.19
2022-11-03T10:50:34.838Z,13.27
2022-11-03T10:55:25.898Z,13.36
2022-11-03T11:00:16.673Z,13.45
2022-11-03T11:05:12.730Z,13.51
2022-11-03T11:10:10.162Z,13.56
2022-11-03T11:15:09.838Z,13.63
2022-11-03T11:20:18.333Z,13.73
2022-11-03T11:25:12.745Z,13.80
2022-11-03T11:30:04.984Z,13.86
2022-11-03T11:34:54.668Z,13.93
2022-11-03T11:39:47.186Z,14.06
2022-11-03T11:44:49.999Z,14.22
2022-11-03T11:49:39.575Z,14.34
2022-11-03T11:54:29.011Z,14.42
2022-11-03T11:59:24.261Z,14.46
2022-11-03T12:04:24.207Z,14.44
2022-11-03T12:09:18.877Z,14.43
2022-11-03T12:14:08.259Z,14.42
2022-11-03T12:18:58.949Z,14.53
2022-11-03T12:23:51.211Z,14.72
2022-11-03T12:28:40.616Z,14.87
2022-11-03T12:33:30.645Z,14.97
2022-11-03T12:38:20.090Z,15.14
2022-11-03T12:43:12.051Z,15.28
2022-11-03T12:48:04.941Z,15.41
2022-11-03T12:52:54.377Z,15.40
2022-11-03T12:57:45.831Z,15.34
2022-11-03T13:02:38.043Z,15.29
2022-11-03T13:07:31.957Z,15.28
2022-11-03T13:12:38.294Z,15.26
2022-11-03T13:17:35.856Z,15.31
2022-11-03T13:22:39.305Z,15.39
2022-11-03T13:27:28.696Z,15.38
2022-11-03T13:32:18.051Z,15.34
2022-11-03T13:37:07.539Z,15.25
2022-11-03T13:41:59.613Z,15.13
2022-11-03T13:46:49.346Z,15.01
2022-11-03T13:51:39.156Z,14.91
2022-11-03T13:56:29.137Z,14.81
2022-11-03T14:01:21.648Z,14.74
2022-11-03T14:06:11.410Z,14.65
2022-11-03T14:11:20.838Z,14.60
2022-11-03T14:16:10.633Z,14.56
2022-11-03T14:21:03.154Z,14.56
2022-11-03T14:26:01.031Z,14.55
2022-11-03T14:31:03.938Z,14.53
2022-11-03T14:35:53.318Z,14.49
2022-11-03T14:40:57.779Z,14.46
2022-11-03T14:45:47.356Z,14.39
2022-11-03T14:50:37.207Z,14.19
2022-11-03T14:55:26.778Z,14.05
2022-11-03T15:00:20.271Z,13.88
2022-11-03T15:05:29.870Z,13.76
2022-11-03T15:10:19.320Z,13.65
2022-11-03T15:15:11.525Z,13.59
2022-11-03T15:20:04.007Z,13.49
2022-11-03T15:30:02.972Z,13.34
2022-11-03T15:34:55.328Z,13.26
2022-11-03T15:39:50.081Z,13.14
2022-11-03T15:44:39.469Z,13.04
2022-11-03T15:49:28.884Z,12.96
2022-11-03T15:54:21.318Z,12.93
2022-11-03T15:59:13.388Z,12.87
2022-11-03T16:04:05.773Z,12.83
2022-11-03T16:08:55.146Z,12.82
2022-11-03T16:13:44.507Z,12.79
2022-11-03T16:18:43.379Z,12.74
2022-11-03T16:23:32.729Z,12.67
2022-11-03T16:28:22.138Z,12.59
2022-11-03T16:33:22.055Z,12.51
2022-11-03T16:38:15.476Z,12.44
2022-11-03T16:43:05.163Z,12.36
2022-11-03T16:47:54.912Z,12.29
2022-11-03T16:52:45.528Z,12.24
2022-11-03T16:57:37.716Z,12.16
2022-11-03T17:02:28.142Z,12.08
2022-11-03T17:07:17.718Z,12.02
2022-11-03T17:12:07.319Z,11.97
2022-11-03T17:16:59.587Z,11.94
2022-11-03T17:21:49.072Z,11.91
2022-11-03T17:26:43.318Z,11.86
2022-11-03T17:31:33.890Z,11.80
2022-11-03T17:36:26.158Z,11.76
2022-11-03T17:41:18.082Z,11.75
2022-11-03T17:46:09.066Z,11.70
2022-11-03T17:50:58.956Z,11.68
2022-11-03T17:56:08.976Z,11.67
2022-11-03T18:01:01.702Z,11.67
2022-11-03T18:05:51.147Z,11.66
2022-11-03T18:10:42.843Z,11.66
2022-11-03T18:15:36.817Z,11.62
2022-11-03T18:20:29.273Z,11.61
2022-11-03T18:25:19.543Z,11.58
2022-11-03T18:30:09.505Z,11.58
2022-11-03T18:35:01.808Z,11.57
2022-11-03T18:39:51.320Z,11.59
2022-11-03T18:44:41.405Z,11.60
2022-11-03T18:49:33.163Z,11.57
2022-11-03T18:54:27.960Z,11.57
2022-11-03T18:59:21.124Z,11.55
2022-11-03T19:04:14.921Z,11.54
2022-11-03T19:09:04.352Z,11.54
2022-11-03T19:13:56.901Z,11.56
2022-11-03T19:18:47.354Z,11.53
2022-11-03T19:23:36.710Z,11.53
2022-11-03T19:28:26.400Z,11.54
2022-11-03T19:33:21.504Z,11.53
2022-11-03T19:38:14.024Z,11.53
2022-11-03T19:43:04.749Z,11.56
2022-11-03T19:48:25.417Z,11.58
2022-11-03T19:53:10.269Z,11.56
2022-11-03T19:58:03.551Z,11.54
2022-11-03T20:02:52.891Z,11.51
2022-11-03T20:07:43.194Z,11.47
2022-11-03T20:12:36.214Z,11.46
2022-11-03T20:17:25.871Z,11.41
2022-11-03T20:22:17.365Z,11.38
2022-11-03T20:27:06.712Z,11.38
2022-11-03T20:31:58.755Z,11.37
2022-11-03T20:36:48.463Z,11.35
2022-11-03T20:41:38.130Z,11.36
2022-11-03T20:46:29.019Z,11.35
2022-11-03T20:51:22.585Z,11.33
2022-11-03T20:56:19.674Z,11.22
2022-11-03T21:01:13.589Z,11.14
2022-11-03T21:06:04.119Z,11.09
2022-11-03T21:11:16.698Z,11.03
2022-11-03T21:16:24.880Z,11.01
2022-11-03T21:21:19.619Z,10.93
2022-11-03T21:26:14.822Z,10.94
2022-11-03T21:31:04.668Z,10.95
2022-11-03T21:35:55.195Z,10.91
2022-11-03T21:40:46.185Z,10.91
2022-11-03T21:45:38.547Z,10.92
2022-11-03T21:50:27.964Z,10.91
2022-11-03T21:55:17.354Z,10.91
2022-11-03T22:00:07.505Z,10.93
2022-11-03T22:04:59.534Z,10.93
2022-11-03T22:09:48.900Z,10.91
2022-11-03T22:14:50.535Z,10.90
2022-11-03T22:19:52.376Z,10.90
2022-11-03T22:24:57.147Z,10.87
2022-11-03T22:29:58.994Z,10.85
2022-11-03T22:35:00.890Z,10.83
2022-11-03T22:40:05.285Z,10.81
2022-11-03T22:45:07.121Z,10.79
2022-11-03T22:49:56.580Z,10.76
2022-11-03T22:54:46.026Z,10.74
2022-11-03T22:59:37.965Z,10.73
2022-11-03T23:04:27.365Z,10.70
2022-11-03T23:09:17.668Z,10.64
2022-11-03T23:14:08.638Z,10.57
2022-11-03T23:19:13.776Z,10.63
2022-11-03T23:24:16.270Z,10.61
2022-11-03T23:29:06.473Z,10.55
2022-11-03T23:33:56.221Z,10.59
2022-11-03T23:38:48.819Z,10.64
2022-11-03T23:43:38.938Z,10.64
2022-11-03T23:48:41.122Z,10.65
2022-11-03T23:53:30.735Z,10.61
2022-11-03T23:58:23.090Z,10.53
